createdAt,value
2022-10-11T00:05:48.143Z,3.15
2022-10-11T00:16:13.302Z,3.03
2022-10-11T00:26:34.828Z,3.20
2022-10-11T00:36:57.984Z,2.53
2022-10-11T00:47:21.229Z,2.50
2022-10-11T00:57:49.420Z,2.83
2022-10-11T01:08:11.025Z,2.72
2022-10-11T01:18:39.234Z,2.55
2022-10-11T01:29:11.788Z,5.38
2022-10-11T01:39:39.566Z,3.47
2022-10-11T01:50:02.456Z,2.75
2022-10-11T02:00:31.766Z,2.38
2022-10-11T02:10:59.724Z,2.83
2022-10-11T02:21:24.352Z,2.85
2022-10-11T02:31:46.780Z,3.67
2022-10-11T02:42:15.259Z,2.70
2022-10-11T02:52:36.687Z,2.83
2022-10-11T03:02:59.338Z,2.97
2022-10-11T03:13:20.744Z,2.60
2022-10-11T03:23:43.150Z,3.33
2022-10-11T03:34:04.731Z,3.38
2022-10-11T03:44:27.860Z,2.35
2022-10-11T03:54:49.454Z,3.03
2022-10-11T04:05:12.624Z,3.28
2022-10-11T04:15:34.221Z,2.88
2022-10-11T04:25:56.951Z,3.83
2022-10-11T04:36:18.186Z,3.55
2022-10-11T04:46:40.730Z,3.85
2022-10-11T04:57:02.017Z,4.07
2022-10-11T05:07:24.691Z,4.25
2022-10-11T05:17:45.896Z,4.40
2022-10-11T05:28:08.746Z,3.78
2022-10-11T05:38:30.642Z,5.05
2022-10-11T05:48:53.481Z,4.13
2022-10-11T05:59:15.196Z,4.40
2022-10-11T06:09:37.666Z,5.28
2022-10-11T06:19:59.282Z,4.85
2022-10-11T06:30:21.747Z,6.00
2022-10-11T06:40:43.276Z,6.13
2022-10-11T06:51:06.392Z,5.65
2022-10-11T07:01:28.550Z,4.72
2022-10-11T07:11:51.249Z,6.60
2022-10-11T07:22:12.795Z,5.97
2022-10-11T07:32:35.600Z,3.95
2022-10-11T07:42:58.288Z,4.93
2022-10-11T07:53:21.340Z,4.75
2022-10-11T08:03:43.051Z,3.38
2022-10-11T08:14:08.842Z,3.42
2022-10-11T08:24:33.542Z,3.07
2022-10-11T08:35:00.251Z,2.03
2022-10-11T08:45:29.496Z,3.47
2022-10-11T08:55:53.480Z,3.50
2022-10-11T09:06:27.083Z,3.03
2022-10-11T09:17:00.655Z,2.60
2022-10-11T09:27:43.659Z,2.38
2022-10-11T09:38:19.134Z,1.98
2022-10-11T09:48:42.539Z,2.00
2022-10-11T09:59:19.691Z,2.70
2022-10-11T10:09:41.074Z,2.53
2022-10-11T10:20:05.648Z,2.10
2022-10-11T10:30:29.795Z,1.70
2022-10-11T10:40:59.050Z,1.77
2022-10-11T10:51:35.000Z,1.90
2022-10-11T11:02:21.445Z,2.22
2022-10-11T11:12:50.804Z,2.65
2022-10-11T11:23:23.436Z,1.77
2022-10-11T11:33:54.695Z,2.97
2022-10-11T11:44:27.168Z,1.98
2022-10-11T11:54:53.128Z,1.98
2022-10-11T12:05:18.129Z,2.60
2022-10-11T12:15:39.719Z,1.80
2022-10-11T12:26:32.013Z,1.67
2022-10-11T12:36:53.763Z,1.65
2022-10-11T12:47:35.407Z,2.97
2022-10-11T12:58:41.296Z,2.05
2022-10-11T13:09:08.006Z,2.10
2022-10-11T13:19:30.942Z,2.00
2022-10-11T13:29:56.160Z,2.65
2022-10-11T13:40:21.105Z,1.93
2022-10-11T13:50:46.525Z,2.90
2022-10-11T14:01:20.235Z,1.55
2022-10-11T14:11:43.273Z,2.00
2022-10-11T14:22:05.668Z,2.38
2022-10-11T14:32:31.774Z,2.90
2022-10-11T14:42:53.594Z,2.55
2022-10-11T14:53:16.611Z,2.40
2022-10-11T15:03:37.907Z,2.30
2022-10-11T15:14:06.347Z,2.50
2022-10-11T15:24:29.171Z,3.17
2022-10-11T15:34:52.314Z,4.13
2022-10-11T15:45:17.091Z,5.35
2022-10-11T15:55:44.637Z,5.93
2022-10-11T16:06:09.232Z,3.65
2022-10-11T16:16:32.215Z,3.95
2022-10-11T16:26:53.988Z,4.72
2022-10-11T16:37:22.195Z,5.82
2022-10-11T16:47:53.794Z,8.47
2022-10-11T16:58:16.950Z,5.75
2022-10-11T17:08:51.912Z,5.00
2022-10-11T17:19:16.967Z,7.15
2022-10-11T17:29:41.729Z,7.38
2022-10-11T17:40:06.894Z,7.50
2022-10-11T17:50:28.349Z,8.45
2022-10-11T18:00:51.018Z,8.55
2022-10-11T18:11:14.127Z,10.75
2022-10-11T18:21:40.315Z,9.93
2022-10-11T18:32:01.515Z,10.07
2022-10-11T18:42:26.384Z,9.77
2022-10-11T18:52:48.592Z,11.40
2022-10-11T19:03:11.382Z,10.85
2022-10-11T19:13:33.271Z,8.55
2022-10-11T19:23:59.652Z,12.93
2022-10-11T19:34:21.276Z,11.00
2022-10-11T19:44:43.979Z,9.02
2022-10-11T19:55:05.712Z,10.75
2022-10-11T20:05:31.903Z,12.40
2022-10-11T20:16:05.103Z,11.55
2022-10-11T20:26:32.161Z,12.18
2022-10-11T20:47:23.020Z,9.48
2022-10-11T20:57:52.053Z,16.27
2022-10-11T21:08:16.177Z,9.75
2022-10-11T21:18:37.846Z,11.05
2022-10-11T21:29:00.706Z,11.23
2022-10-11T21:39:22.099Z,10.02
2022-10-11T21:49:45.040Z,10.65
2022-10-11T22:00:10.026Z,11.75
2022-10-11T22:10:36.346Z,10.75
2022-10-11T22:21:04.213Z,11.82
2022-10-11T22:31:27.708Z,11.02
2022-10-11T22:41:48.980Z,12.27
2022-10-11T22:52:11.475Z,11.90
2022-10-11T23:02:32.517Z,9.95
2022-10-11T23:12:55.362Z,11.38
2022-10-11T23:23:17.200Z,18.52
2022-10-11T23:33:40.102Z,10.63
2022-10-11T23:44:01.552Z,11.68
2022-10-11T23:54:24.134Z,11.05
